Aeroporto :
LOGIN :

Iscrizione | Disclaimer

   EN    FR    IT 

 










Sommario :    VFR   VFR Marginale   IFR   IFR Intensivo   IFR Molto Intensivo
Visibilità : 
Base nubi : 
>= 8 km
>= 3000ft
5 / 8 km
1000 / 3000 ft
1500m / 5 km
500 / 1000 ft
800 / 1500m
200 / 500 ft
< 800m
< 200 ft
Simboli :   Temporali  Nebbia  Neve Forte  Precipitazioni Forti  Vento > 20 kt
SIGMETs :   Varie  Temporali  Ghiacco  Turbolenza  Onda orograficha  Ceneri Vulcaniche






- Altitudine del aeroporto : 147 ft
- Codice IATA : DUS


EDDL - Düsseldorf Int.

ULTIMO METAR :
  • 011120Z VRB04KT CAVOK 09/M03 Q1022 NOSIG

METARs OBSOLETI :
  • 011050Z 29005KT 230V360 CAVOK 09/M04 Q1022 NOSIG
  • 011020Z VRB03KT 9999 FEW044 09/M03 Q1022 NOSIG
  • 010950Z VRB03KT CAVOK 08/M03 Q1023 NOSIG
  • 010920Z VRB02KT CAVOK 08/M02 Q1023 NOSIG
  • 010850Z VRB02KT CAVOK 07/M03 Q1024 NOSIG
  • 010820Z VRB02KT CAVOK 06/M03 Q1024 NOSIG

TAF TAF EDDL
Valido dal 01 a 06 ore il 02 a 12 ore UTC


010500Z 0106/0212 VRB03KT CAVOK
BECMG 0109/0112 31005KT
BECMG 0117/0120 VRB03KT
BECMG 0209/0212 24008KT



MetMap, La meteo Aeronautica in un colpo d'occhio ! - Copyright ORBIFLY Dicembre 2007 - Disclaimer

ORBIFLY MET'MAP TEAM :

Programmazione e sviluppo : Alexandra Zaïnal
Concezione : Baudouin d'Aumeries
Aiuto per la programmazione : Marc-Olivier Méhu
Supporto tecnico e logistico : Manuel Goepfert
Aiuto per la traduzione : Arnaldo La Scala

Contatto : metmap@orbifly.com




FONTI E CREDITI :

   NOAA